Butler, Oklahoma
Current Conditions -  °F | °C
As of 11:15 PM on Monday 20 Oct 2014 (Local Time) from KCLK Reporting Station
Scattered Clouds Scattered Clouds  
Wind Chill: 64°   Ceiling: Unl
Heat Index: 64°   Visibility: 10mi
Dew Point: 59°   Wind: 5mph
Humidity: 83%   Direction: 90°E
Pressure: 30.07"   Gusts: NA
Location:  35.64°N, 99.19°W
Report Text: KCLK 210415Z AUTO 09004KT 10SM SCT060 SCT100 18/15 A3007 RMK AO2
Loading
Personal Weather Stations






























Interactive Weather Map New forecast layout! Learn more

10-Day Weather Forecast

Advertisements
Track Severe Weather on mobile